createdAt,value
2022-11-19T03:59:16.197Z,5.80
2022-11-19T04:00:09.394Z,6.00
2022-11-19T04:01:10.076Z,5.80
2022-11-19T04:02:07.850Z,5.40
2022-11-19T04:03:07.950Z,6.70
2022-11-19T04:04:10.626Z,5.80
2022-11-19T04:05:08.196Z,5.40
2022-11-19T04:06:09.935Z,5.60
2022-11-19T04:07:08.463Z,5.50
2022-11-19T04:08:08.610Z,5.20
2022-11-19T04:09:08.728Z,5.00
2022-11-19T04:10:08.863Z,5.30
2022-11-19T04:12:26.189Z,5.20
2022-11-19T04:13:27.993Z,5.70
2022-11-19T04:14:28.260Z,5.80
2022-11-19T04:15:28.478Z,5.30
2022-11-19T04:16:28.227Z,5.30
2022-11-19T04:17:28.489Z,6.10
2022-11-19T04:18:28.755Z,5.50
2022-11-19T04:19:28.986Z,5.50
2022-11-19T04:20:28.708Z,5.00
2022-11-19T04:21:28.964Z,5.70
2022-11-19T04:22:29.199Z,5.90
2022-11-19T04:23:29.460Z,4.60
2022-11-19T04:24:29.719Z,5.20
2022-11-19T04:25:29.484Z,6.30
2022-11-19T04:26:29.739Z,5.60
2022-11-19T04:27:29.996Z,6.20
2022-11-19T04:28:28.278Z,5.00
2022-11-19T04:29:30.044Z,5.30
2022-11-19T04:30:28.525Z,5.90
2022-11-19T04:31:28.675Z,4.60
2022-11-19T04:32:28.812Z,5.20
2022-11-19T04:33:28.923Z,4.80
2022-11-19T04:34:30.679Z,5.60
2022-11-19T04:35:29.145Z,5.60
2022-11-19T04:36:29.316Z,6.10
2022-11-19T04:37:31.074Z,4.80
2022-11-19T04:38:31.317Z,5.50
2022-11-19T04:39:31.583Z,6.00
2022-11-19T04:40:29.878Z,5.30
2022-11-19T04:41:31.699Z,5.30
2022-11-19T04:42:30.146Z,5.70
2022-11-19T04:43:31.267Z,5.50
2022-11-19T04:44:31.992Z,5.70
2022-11-19T04:45:30.566Z,5.60
2022-11-19T04:46:30.662Z,5.70
2022-11-19T04:47:30.791Z,5.70
2022-11-19T04:48:31.892Z,6.60
2022-11-19T04:49:32.656Z,5.80
2022-11-19T04:50:32.884Z,6.00
2022-11-19T04:51:31.278Z,5.60
2022-11-19T04:52:37.676Z,6.80
2022-11-19T04:53:35.000Z,6.90
2022-11-19T04:54:31.698Z,6.00
2022-11-19T04:55:32.815Z,6.30
2022-11-19T04:56:31.944Z,6.80
2022-11-19T04:57:34.638Z,6.40
2022-11-19T04:58:34.649Z,6.30
2022-11-19T04:59:32.369Z,6.90
2022-11-19T05:00:35.519Z,5.70
2022-11-19T05:01:35.323Z,6.40
2022-11-19T05:02:32.704Z,6.90
2022-11-19T05:03:35.340Z,7.10
2022-11-19T05:04:33.001Z,7.20
2022-11-19T05:05:35.660Z,5.90
2022-11-19T05:06:33.295Z,6.20
2022-11-19T05:07:33.460Z,6.10
2022-11-19T05:08:35.887Z,6.30
2022-11-19T05:09:33.677Z,6.20
2022-11-19T05:10:36.335Z,6.40
2022-11-19T05:11:33.976Z,5.80
2022-11-19T05:12:34.110Z,5.60
2022-11-19T05:13:35.340Z,7.00
2022-11-19T05:14:34.348Z,6.40
2022-11-19T05:15:34.507Z,5.90
2022-11-19T05:16:34.654Z,6.30
2022-11-19T05:17:34.815Z,5.50
2022-11-19T05:18:36.037Z,5.80
2022-11-19T05:19:35.110Z,5.70
2022-11-19T05:20:35.279Z,6.40
2022-11-19T05:21:37.036Z,5.40
2022-11-19T05:22:35.507Z,6.00
2022-11-19T05:23:36.666Z,5.20
2022-11-19T05:24:35.805Z,5.50
2022-11-19T05:25:35.957Z,5.80
2022-11-19T05:26:37.716Z,5.80
2022-11-19T05:27:36.185Z,6.10
2022-11-19T05:28:39.347Z,5.70
2022-11-19T05:29:36.495Z,5.50
2022-11-19T05:30:36.657Z,5.40
2022-11-19T05:31:36.776Z,5.60
2022-11-19T05:32:36.938Z,5.80
2022-11-19T05:33:38.117Z,5.30
2022-11-19T05:34:38.855Z,6.00
2022-11-19T05:35:39.095Z,6.10
2022-11-19T05:36:37.415Z,5.90
2022-11-19T05:37:37.565Z,5.60
2022-11-19T05:38:38.806Z,6.30
2022-11-19T05:39:37.847Z,5.50
2022-11-19T05:40:37.968Z,6.20
2022-11-19T05:41:39.072Z,6.50
2022-11-19T05:42:38.194Z,5.50
2022-11-19T05:43:39.308Z,5.60
2022-11-19T05:44:40.035Z,5.70
2022-11-19T05:45:38.567Z,6.00
2022-11-19T05:46:38.703Z,5.40
2022-11-19T05:47:38.873Z,6.60
2022-11-19T05:48:38.953Z,6.50
2022-11-19T05:49:40.727Z,5.30
2022-11-19T05:50:39.278Z,5.60
2022-11-19T05:51:40.966Z,5.30
2022-11-19T05:52:39.514Z,5.80
2022-11-19T05:53:39.591Z,5.70
2022-11-19T05:54:41.321Z,5.00
2022-11-19T05:55:39.904Z,5.80
2022-11-19T05:56:40.083Z,5.50
2022-11-19T05:57:40.197Z,6.00
2022-11-19T05:58:40.343Z,5.40
2022-11-19T05:59:44.066Z,5.60
2022-11-19T06:00:42.320Z,6.60
2022-11-19T06:01:40.761Z,5.20
2022-11-19T06:02:40.974Z,5.80
2022-11-19T06:03:41.057Z,5.50
2022-11-19T06:04:41.199Z,5.50
2022-11-19T06:05:42.960Z,6.00
2022-11-19T06:06:42.672Z,6.00
2022-11-19T06:07:41.631Z,5.70
2022-11-19T06:08:41.789Z,5.80
2022-11-19T06:09:43.508Z,6.40
2022-11-19T06:10:43.739Z,5.30
2022-11-19T06:11:43.209Z,6.00
2022-11-19T06:12:45.577Z,5.30
2022-11-19T06:13:42.458Z,5.80
2022-11-19T06:14:42.652Z,5.20
2022-11-19T06:15:44.347Z,6.10
2022-11-19T06:16:42.911Z,5.60
2022-11-19T06:17:42.987Z,5.90
2022-11-19T06:18:43.122Z,5.50
2022-11-19T06:19:44.876Z,6.00
2022-11-19T06:20:43.404Z,5.30
2022-11-19T06:21:43.547Z,5.80
2022-11-19T06:22:45.286Z,5.70
2022-11-19T06:23:43.816Z,5.90
2022-11-19T06:24:43.959Z,6.60
2022-11-19T06:25:44.107Z,6.40
2022-11-19T06:26:45.885Z,5.70
2022-11-19T06:27:44.432Z,5.00
2022-11-19T06:28:44.467Z,5.30
2022-11-19T06:29:44.656Z,5.00
2022-11-19T06:30:44.819Z,5.30
2022-11-19T06:31:46.526Z,4.90
2022-11-19T06:32:45.046Z,4.60
2022-11-19T06:33:45.200Z,5.60
2022-11-19T06:34:45.278Z,5.30
2022-11-19T06:35:45.478Z,5.30
2022-11-19T06:36:50.566Z,5.20
2022-11-19T06:37:45.624Z,5.40
2022-11-19T06:38:45.715Z,5.20
2022-11-19T06:39:47.459Z,5.00
2022-11-19T06:40:45.994Z,5.60
2022-11-19T06:41:47.756Z,5.20
2022-11-19T06:42:50.972Z,6.00
2022-11-19T06:43:46.506Z,5.60
2022-11-19T06:44:48.239Z,5.40
2022-11-19T06:45:46.798Z,5.40
2022-11-19T06:46:46.897Z,4.90
2022-11-19T06:47:47.014Z,5.60
2022-11-19T06:48:48.119Z,6.40
2022-11-19T06:49:48.892Z,5.20
2022-11-19T06:50:47.425Z,5.00
2022-11-19T06:51:49.132Z,5.00
2022-11-19T06:52:47.713Z,5.40
2022-11-19T06:53:49.467Z,5.00
2022-11-19T06:54:47.962Z,5.40
2022-11-19T06:55:48.082Z,6.10
2022-11-19T06:56:49.821Z,5.00
2022-11-19T06:57:48.352Z,6.00
2022-11-19T06:58:48.422Z,5.20
2022-11-19T06:59:48.625Z,5.70
2022-11-19T07:00:50.371Z,4.90
2022-11-19T07:01:48.975Z,6.00
2022-11-19T07:02:50.651Z,4.90
2022-11-19T07:03:49.211Z,4.80
2022-11-19T07:04:49.356Z,5.00
2022-11-19T07:05:49.523Z,5.50
2022-11-19T07:06:51.270Z,4.50
2022-11-19T07:07:50.572Z,4.20
2022-11-19T07:08:50.732Z,4.90
2022-11-19T07:09:50.053Z,5.30
2022-11-19T07:10:51.072Z,4.70
2022-11-19T07:11:51.999Z,5.00
2022-11-19T07:12:50.457Z,5.10
2022-11-19T07:13:50.602Z,4.20
2022-11-19T07:14:51.141Z,5.00
2022-11-19T07:15:51.600Z,4.80
2022-11-19T07:16:52.619Z,4.90
2022-11-19T07:17:52.860Z,5.40
2022-11-19T07:18:51.461Z,5.10
2022-11-19T07:19:52.289Z,5.70
2022-11-19T07:20:52.445Z,6.30
2022-11-19T07:21:54.153Z,5.20
2022-11-19T07:22:54.881Z,5.60
2022-11-19T07:23:52.918Z,5.20
2022-11-19T07:24:53.678Z,5.40
2022-11-19T07:25:53.172Z,4.20
2022-11-19T07:26:52.310Z,5.10
2022-11-19T07:27:54.030Z,5.60
2022-11-19T07:28:52.549Z,4.90
2022-11-19T07:29:53.628Z,5.20
2022-11-19T07:30:52.781Z,5.00
2022-11-19T07:31:53.007Z,4.60
2022-11-19T07:32:54.674Z,4.80
2022-11-19T07:33:53.179Z,4.40
2022-11-19T07:34:53.315Z,5.00
2022-11-19T07:35:53.446Z,4.70
2022-11-19T07:36:56.636Z,5.70
2022-11-19T07:37:54.605Z,4.70
2022-11-19T07:38:54.779Z,4.70
2022-11-19T07:39:54.965Z,4.30
2022-11-19T07:40:55.086Z,5.40
2022-11-19T07:41:56.098Z,5.00
2022-11-19T07:42:56.177Z,5.20
2022-11-19T07:43:57.420Z,4.60
2022-11-19T07:44:55.054Z,4.60
2022-11-19T07:45:54.770Z,4.80
2022-11-19T07:46:56.574Z,5.70
2022-11-19T07:47:55.007Z,4.90
2022-11-19T07:48:56.816Z,5.40
2022-11-19T07:49:55.344Z,4.70
2022-11-19T07:50:56.714Z,5.10
2022-11-19T07:51:57.367Z,4.80
2022-11-19T07:52:55.704Z,5.20
2022-11-19T07:53:56.659Z,5.90
2022-11-19T07:54:57.623Z,5.40
2022-11-19T07:55:56.076Z,4.60
2022-11-19T07:56:56.883Z,4.90
2022-11-19T07:57:57.043Z,5.30
2022-11-19T07:58:58.226Z,5.30
2022-11-19T07:59:58.326Z,5.20
2022-11-19T08:00:56.674Z,5.20
2022-11-19T08:01:58.493Z,4.40
2022-11-19T08:02:56.920Z,5.20
2022-11-19T08:03:58.001Z,5.30
2022-11-19T08:04:57.515Z,4.90
2022-11-19T08:05:57.262Z,5.40
2022-11-19T08:06:59.009Z,4.50
2022-11-19T08:07:59.253Z,4.90
2022-11-19T08:08:57.621Z,6.00
2022-11-19T08:09:57.771Z,5.10
2022-11-19T08:10:58.851Z,5.10
2022-11-19T08:11:58.780Z,5.20
2022-11-19T08:12:59.959Z,5.40
2022-11-19T08:13:58.240Z,4.80
2022-11-19T08:14:58.360Z,4.70
2022-11-19T08:16:00.119Z,5.20
2022-11-19T08:16:58.660Z,4.80
2022-11-19T08:18:01.365Z,5.10
2022-11-19T08:18:58.871Z,5.00
2022-11-19T08:19:59.030Z,4.70
2022-11-19T08:21:00.825Z,4.90
2022-11-19T08:22:00.274Z,5.20
2022-11-19T08:23:00.410Z,4.90
2022-11-19T08:24:00.539Z,6.00
2022-11-19T08:25:00.590Z,5.10
2022-11-19T08:26:01.553Z,4.90
2022-11-19T08:27:00.908Z,5.80
2022-11-19T08:28:00.816Z,5.30
2022-11-19T08:29:00.990Z,5.40
2022-11-19T08:30:02.038Z,5.20
2022-11-19T08:31:00.496Z,4.80
2022-11-19T08:32:02.237Z,5.00
2022-11-19T08:33:00.737Z,5.60
2022-11-19T08:34:00.866Z,4.90
2022-11-19T08:35:02.099Z,5.40
2022-11-19T08:36:01.089Z,4.80
2022-11-19T08:37:01.240Z,5.20
2022-11-19T08:38:02.979Z,5.30
2022-11-19T08:39:01.441Z,5.10
2022-11-19T08:40:01.571Z,4.80
2022-11-19T08:41:01.698Z,4.30
2022-11-19T08:42:01.807Z,4.70
2022-11-19T08:43:03.537Z,4.80
2022-11-19T08:44:02.079Z,4.90
2022-11-19T08:45:02.144Z,4.50
2022-11-19T08:46:02.264Z,4.40
2022-11-19T08:47:02.384Z,5.00
2022-11-19T08:48:02.506Z,4.90
2022-11-19T08:49:04.468Z,5.20
2022-11-19T08:50:03.569Z,5.00
2022-11-19T08:51:04.557Z,4.40
2022-11-19T08:52:03.124Z,5.40
2022-11-19T08:53:04.863Z,4.80
2022-11-19T08:54:05.105Z,4.90
2022-11-19T08:55:03.505Z,4.90
2022-11-19T08:56:06.246Z,4.70
2022-11-19T08:57:03.815Z,5.60
2022-11-19T08:58:05.502Z,4.70
2022-11-19T08:59:05.234Z,5.00
2022-11-19T09:00:06.428Z,4.60
2022-11-19T09:01:05.177Z,5.40
2022-11-19T09:02:07.036Z,4.70
2022-11-19T09:03:05.410Z,4.20
2022-11-19T09:04:06.575Z,4.20
2022-11-19T09:05:04.882Z,4.70
2022-11-19T09:06:05.874Z,4.00
2022-11-19T09:07:06.833Z,5.50
2022-11-19T09:08:07.023Z,5.20
2022-11-19T09:09:05.441Z,4.70
2022-11-19T09:10:05.592Z,4.00
2022-11-19T09:11:05.691Z,4.60
2022-11-19T09:12:05.842Z,5.30
2022-11-19T09:13:07.612Z,5.50
2022-11-19T09:14:06.123Z,4.60
2022-11-19T09:15:06.222Z,4.20
2022-11-19T09:16:07.967Z,4.50
2022-11-19T09:17:07.405Z,4.00
2022-11-19T09:18:08.262Z,4.80
2022-11-19T09:19:06.718Z,4.10
2022-11-19T09:20:06.843Z,4.90
2022-11-19T09:21:06.981Z,5.10
2022-11-19T09:22:08.731Z,4.90
2022-11-19T09:23:07.260Z,3.80
2022-11-19T09:24:09.005Z,4.10
2022-11-19T09:25:09.277Z,4.20
2022-11-19T09:26:10.908Z,4.60
2022-11-19T09:27:09.746Z,4.40
2022-11-19T09:28:07.870Z,3.90
2022-11-19T09:29:09.636Z,4.00
2022-11-19T09:30:09.880Z,4.40
2022-11-19T09:31:10.140Z,3.90
2022-11-19T09:32:10.389Z,4.50
2022-11-19T09:33:11.086Z,4.40
2022-11-19T09:34:10.607Z,4.00
2022-11-19T09:35:11.586Z,4.20
2022-11-19T09:36:08.976Z,4.90
2022-11-19T09:37:10.635Z,4.10
2022-11-19T09:38:10.899Z,3.90
2022-11-19T09:39:12.604Z,4.60
2022-11-19T09:40:09.683Z,4.40
2022-11-19T09:41:11.237Z,4.20
2022-11-19T09:42:11.565Z,4.30
2022-11-19T09:43:15.468Z,4.10
2022-11-19T09:44:10.045Z,4.30
2022-11-19T09:45:11.808Z,3.50
2022-11-19T09:46:10.310Z,4.40
2022-11-19T09:47:10.506Z,4.30
2022-11-19T09:48:13.760Z,4.40
2022-11-19T09:49:13.510Z,4.60
2022-11-19T09:50:11.643Z,3.40
2022-11-19T09:51:11.247Z,4.00
2022-11-19T09:52:11.163Z,3.80
2022-11-19T09:53:11.378Z,4.10
2022-11-19T09:54:13.301Z,4.00
2022-11-19T09:55:14.295Z,4.20
2022-11-19T09:56:12.595Z,3.50
2022-11-19T09:57:14.511Z,4.20
2022-11-19T09:58:12.912Z,3.90
2022-11-19T09:59:12.845Z,3.30
2022-11-19T10:00:14.256Z,4.00
2022-11-19T10:01:15.310Z,3.90
2022-11-19T10:02:12.503Z,3.90
2022-11-19T10:13:13.524Z,4.40
2022-11-19T10:14:13.635Z,4.60
2022-11-19T10:15:13.742Z,4.40
2022-11-19T10:16:13.904Z,3.90
2022-11-19T10:17:14.648Z,4.00
2022-11-19T10:18:15.085Z,4.60
2022-11-19T10:19:15.038Z,4.20
2022-11-19T10:20:14.385Z,3.10
2022-11-19T10:21:14.452Z,3.90
2022-11-19T10:22:14.605Z,3.60
2022-11-19T10:23:14.673Z,4.10
2022-11-19T10:24:14.979Z,4.30
2022-11-19T10:25:15.560Z,4.10
2022-11-19T10:26:15.041Z,3.70
2022-11-19T10:27:15.238Z,3.50
2022-11-19T10:28:15.310Z,3.60
2022-11-19T10:29:15.460Z,3.60
2022-11-19T10:30:16.209Z,3.90
2022-11-19T10:31:15.752Z,3.70
2022-11-19T10:32:15.920Z,4.50
2022-11-19T10:33:16.041Z,3.60
2022-11-19T10:34:16.184Z,3.30
2022-11-19T10:35:17.912Z,3.90
2022-11-19T10:36:18.195Z,3.80
2022-11-19T10:37:18.409Z,3.90
2022-11-19T10:38:18.629Z,4.00
2022-11-19T10:39:18.545Z,3.90
2022-11-19T10:40:18.702Z,3.60
2022-11-19T10:41:18.888Z,3.90
2022-11-19T10:42:20.120Z,3.90
2022-11-19T10:43:23.116Z,3.60
2022-11-19T10:44:19.229Z,3.90
2022-11-19T10:45:19.363Z,4.00
2022-11-19T10:46:19.606Z,3.50
2022-11-19T10:47:19.865Z,4.20
2022-11-19T10:48:20.184Z,3.40
2022-11-19T10:49:20.135Z,3.80
2022-11-19T10:50:20.069Z,3.80
2022-11-19T10:51:20.307Z,3.10
2022-11-19T10:52:20.587Z,3.40
2022-11-19T10:53:20.344Z,3.70
2022-11-19T10:54:18.874Z,3.40
2022-11-19T10:55:20.667Z,3.70
2022-11-19T10:56:19.174Z,3.70
2022-11-19T10:57:19.298Z,4.10
2022-11-19T10:58:20.216Z,3.40
2022-11-19T10:59:19.987Z,4.10
2022-11-19T11:00:19.759Z,3.70
2022-11-19T11:01:21.603Z,4.10
2022-11-19T11:02:25.017Z,3.80
2022-11-19T11:03:21.161Z,3.70
2022-11-19T11:04:21.924Z,4.50
2022-11-19T11:05:20.505Z,3.40
2022-11-19T11:06:20.515Z,3.60
2022-11-19T11:07:22.288Z,3.40
2022-11-19T11:08:22.584Z,3.90
2022-11-19T11:09:22.848Z,3.00
2022-11-19T11:10:23.082Z,3.40
2022-11-19T11:11:21.216Z,3.30
2022-11-19T11:12:22.964Z,4.00
2022-11-19T11:13:23.204Z,3.90
2022-11-19T11:14:23.527Z,3.90
2022-11-19T11:15:21.828Z,3.50
2022-11-19T11:16:23.566Z,3.00
2022-11-19T11:17:23.840Z,3.00
2022-11-19T11:18:22.344Z,3.00
2022-11-19T11:19:22.693Z,3.50
2022-11-19T11:20:22.503Z,3.70
2022-11-19T11:21:24.272Z,3.60
2022-11-19T11:22:23.572Z,3.70
2022-11-19T11:23:23.703Z,3.10
2022-11-19T11:24:24.766Z,3.20
2022-11-19T11:25:23.248Z,3.40
2022-11-19T11:26:25.053Z,4.70
2022-11-19T11:27:23.550Z,3.20
2022-11-19T11:28:23.551Z,3.10
2022-11-19T11:29:26.771Z,3.30
2022-11-19T11:30:23.976Z,3.80
2022-11-19T11:31:24.155Z,3.10
2022-11-19T11:32:24.898Z,2.70
2022-11-19T11:33:25.912Z,3.50
2022-11-19T11:34:24.351Z,2.70
2022-11-19T11:35:24.466Z,3.30
2022-11-19T11:36:24.640Z,3.80
2022-11-19T11:37:24.709Z,3.60
2022-11-19T11:38:26.491Z,3.40
2022-11-19T11:39:25.019Z,3.20
2022-11-19T11:40:25.093Z,3.10
2022-11-19T11:42:26.371Z,3.30
2022-11-19T11:43:27.172Z,2.90
2022-11-19T11:44:27.828Z,3.40
2022-11-19T11:45:26.448Z,3.30
2022-11-19T11:46:26.499Z,3.00
2022-11-19T11:47:26.771Z,3.50
2022-11-19T11:48:26.927Z,3.00
2022-11-19T11:49:27.921Z,3.10
2022-11-19T11:50:26.428Z,3.00
2022-11-19T11:51:27.408Z,3.20
2022-11-19T11:52:27.580Z,2.60
2022-11-19T11:53:27.730Z,2.80
2022-11-19T11:54:26.960Z,2.80
2022-11-19T11:55:28.858Z,3.40
2022-11-19T11:56:27.379Z,3.30
2022-11-19T11:57:27.380Z,3.20
2022-11-19T11:58:29.137Z,3.10
2022-11-19T11:59:27.672Z,3.10
2022-11-19T12:00:27.762Z,3.00
2022-11-19T12:01:27.911Z,3.00
2022-11-19T12:02:28.084Z,3.00
2022-11-19T12:03:28.149Z,2.70
2022-11-19T12:04:31.344Z,3.50
2022-11-19T12:05:28.393Z,3.50
2022-11-19T12:06:30.108Z,2.70
2022-11-19T12:07:28.647Z,2.70
2022-11-19T12:08:28.755Z,3.70
2022-11-19T12:09:30.512Z,2.70
2022-11-19T12:10:30.761Z,2.90
2022-11-19T12:11:31.111Z,2.40
2022-11-19T12:12:29.335Z,2.90
2022-11-19T12:13:31.083Z,3.00
2022-11-19T12:14:30.326Z,3.00
2022-11-19T12:15:31.263Z,3.30
2022-11-19T12:16:31.484Z,3.20
2022-11-19T12:17:31.764Z,2.90
2022-11-19T12:18:30.041Z,2.50
2022-11-19T12:19:30.864Z,3.10
2022-11-19T12:20:31.894Z,3.40
2022-11-19T12:21:32.176Z,2.70
2022-11-19T12:22:31.343Z,3.00
2022-11-19T12:23:31.522Z,2.50
2022-11-19T12:24:31.662Z,2.90
2022-11-19T12:25:32.691Z,3.50
2022-11-19T12:26:31.982Z,2.90
2022-11-19T12:27:32.153Z,2.60
2022-11-19T12:28:32.462Z,3.40
2022-11-19T12:29:32.575Z,2.80
2022-11-19T12:30:32.862Z,3.20
2022-11-19T12:31:32.785Z,2.90
2022-11-19T12:32:32.942Z,3.20
2022-11-19T12:33:33.906Z,3.30
2022-11-19T12:34:33.258Z,2.60
2022-11-19T12:35:33.518Z,2.70
2022-11-19T12:36:34.173Z,3.20
2022-11-19T12:37:35.120Z,3.40
2022-11-19T12:38:32.812Z,2.80
2022-11-19T12:39:34.550Z,3.30
2022-11-19T12:40:39.833Z,2.70
2022-11-19T12:41:35.819Z,2.90
2022-11-19T12:42:33.341Z,3.00
2022-11-19T12:43:35.089Z,2.70
2022-11-19T12:44:35.354Z,3.30
2022-11-19T12:45:35.591Z,2.70
2022-11-19T12:46:35.859Z,2.80
2022-11-19T12:47:36.890Z,3.80
2022-11-19T12:48:35.844Z,3.30
2022-11-19T12:49:36.081Z,3.10
2022-11-19T12:50:36.440Z,3.00
2022-11-19T12:51:36.091Z,3.90
2022-11-19T12:52:36.381Z,3.70
2022-11-19T12:53:35.788Z,3.30
2022-11-19T12:54:36.542Z,3.70
2022-11-19T12:55:36.112Z,3.30
2022-11-19T12:56:36.918Z,3.30
2022-11-19T12:57:37.181Z,3.10
2022-11-19T12:58:37.447Z,3.50
2022-11-19T12:59:37.701Z,3.50
2022-11-19T13:00:41.005Z,2.80
2022-11-19T13:01:37.748Z,4.00
2022-11-19T13:02:37.957Z,3.30
2022-11-19T13:03:38.219Z,3.20
2022-11-19T13:04:37.994Z,3.50
2022-11-19T13:05:38.229Z,3.50
2022-11-19T13:06:38.514Z,3.10
2022-11-19T13:07:38.787Z,2.90
2022-11-19T13:08:38.537Z,3.00
2022-11-19T13:09:38.795Z,3.30
2022-11-19T13:10:39.015Z,3.50
2022-11-19T13:11:39.276Z,3.20
2022-11-19T13:12:37.466Z,3.00
2022-11-19T13:13:37.607Z,3.50
2022-11-19T13:14:38.635Z,3.60
2022-11-19T13:15:37.878Z,3.40
2022-11-19T13:16:39.606Z,4.20
2022-11-19T13:17:39.858Z,3.20
2022-11-19T13:18:39.584Z,3.50
2022-11-19T13:19:40.348Z,2.80
2022-11-19T13:20:39.594Z,3.80
2022-11-19T13:21:39.766Z,2.90
2022-11-19T13:22:39.826Z,3.50
2022-11-19T13:23:39.022Z,3.90
2022-11-19T13:24:40.848Z,2.80
2022-11-19T13:25:41.044Z,3.10
2022-11-19T13:26:39.434Z,3.30
2022-11-19T13:27:39.509Z,3.40
2022-11-19T13:28:39.603Z,3.20
2022-11-19T13:29:42.304Z,3.70
2022-11-19T13:30:41.772Z,3.30
2022-11-19T13:31:39.953Z,2.80
2022-11-19T13:32:42.669Z,2.90
2022-11-19T13:33:40.193Z,3.00
2022-11-19T13:34:42.885Z,3.60
2022-11-19T13:35:40.517Z,3.20
2022-11-19T13:36:40.616Z,3.40
2022-11-19T13:37:40.702Z,3.00
2022-11-19T13:38:43.283Z,2.90
2022-11-19T13:39:41.877Z,2.80
2022-11-19T13:40:43.738Z,2.90
2022-11-19T13:41:41.939Z,3.20
2022-11-19T13:42:43.912Z,3.50
2022-11-19T13:43:42.252Z,3.40
2022-11-19T13:44:42.443Z,3.10
2022-11-19T13:45:44.426Z,3.50
2022-11-19T13:46:42.731Z,2.50
2022-11-19T13:47:43.101Z,3.30
2022-11-19T13:48:42.222Z,3.40
2022-11-19T13:49:43.991Z,3.90
2022-11-19T13:50:43.505Z,3.10
2022-11-19T13:51:42.646Z,3.10
2022-11-19T13:52:42.864Z,3.10
2022-11-19T13:53:42.980Z,3.10
2022-11-19T13:54:44.773Z,3.20
2022-11-19T13:55:43.275Z,3.50
2022-11-19T13:56:43.360Z,2.90
2022-11-19T13:57:43.509Z,3.60
2022-11-19T13:58:44.680Z,2.90
2022-11-19T13:59:45.417Z,3.00
2022-11-19T14:00:45.153Z,3.10
2022-11-19T14:01:45.922Z,3.40
2022-11-19T14:02:44.169Z,3.20
2022-11-19T14:03:44.298Z,2.70
2022-11-19T14:04:44.450Z,3.40
2022-11-19T14:05:44.566Z,3.20
2022-11-19T14:06:46.278Z,3.50
2022-11-19T14:07:44.839Z,4.00
2022-11-19T14:08:46.563Z,3.60
2022-11-19T14:09:45.024Z,3.30
2022-11-19T14:10:45.149Z,3.10
2022-11-19T14:11:45.280Z,3.40
2022-11-19T14:12:47.018Z,3.10
2022-11-19T14:13:45.585Z,2.70
2022-11-19T14:14:47.305Z,3.00
2022-11-19T14:15:45.809Z,3.20
2022-11-19T14:16:46.027Z,3.30
2022-11-19T14:17:46.048Z,3.50
2022-11-19T14:18:54.138Z,3.70
2022-11-19T14:19:48.025Z,3.40
2022-11-19T14:20:47.417Z,2.90
2022-11-19T14:21:46.580Z,3.40
2022-11-19T14:22:48.265Z,3.80
2022-11-19T14:23:46.787Z,3.30
2022-11-19T14:24:46.942Z,3.30
2022-11-19T14:25:47.080Z,3.30
2022-11-19T14:26:52.164Z,3.90
2022-11-19T14:27:49.978Z,3.50
2022-11-19T14:28:47.604Z,3.40
2022-11-19T14:29:49.368Z,3.90
2022-11-19T14:30:47.831Z,3.00
2022-11-19T14:31:49.564Z,3.40
2022-11-19T14:32:48.034Z,3.70
2022-11-19T14:33:48.134Z,3.80
2022-11-19T14:34:48.224Z,3.50
2022-11-19T14:35:49.955Z,3.50
2022-11-19T14:36:48.490Z,3.40
2022-11-19T14:37:48.615Z,2.90
2022-11-19T14:38:48.755Z,3.10
2022-11-19T14:39:48.931Z,3.10
2022-11-19T14:40:50.124Z,3.10
2022-11-19T14:41:49.134Z,3.70
2022-11-19T14:42:49.316Z,3.70
2022-11-19T14:43:49.405Z,3.30
2022-11-19T14:44:49.563Z,2.90
2022-11-19T14:45:51.322Z,3.60
2022-11-19T14:46:49.813Z,3.20
2022-11-19T14:47:49.971Z,3.20
2022-11-19T14:48:50.269Z,3.80
2022-11-19T14:49:51.954Z,2.60
2022-11-19T14:50:51.461Z,2.70
2022-11-19T14:51:50.631Z,3.30
2022-11-19T14:52:52.399Z,3.80
2022-11-19T14:53:50.903Z,3.00
2022-11-19T14:54:52.621Z,3.10
2022-11-19T14:55:52.892Z,3.20
2022-11-19T14:56:51.311Z,3.30
2022-11-19T14:57:51.449Z,3.00
2022-11-19T14:58:51.586Z,2.90
2022-11-19T14:59:51.754Z,3.00
2022-11-19T15:00:53.491Z,3.40
2022-11-19T15:01:51.921Z,3.20
2022-11-19T15:02:53.664Z,3.40
2022-11-19T15:03:52.258Z,3.00
2022-11-19T15:04:52.286Z,3.60
2022-11-19T15:05:52.431Z,3.50
2022-11-19T15:06:54.184Z,2.50
2022-11-19T15:07:56.082Z,3.10
2022-11-19T15:08:52.773Z,3.40
2022-11-19T15:09:52.939Z,3.20
2022-11-19T15:10:53.010Z,3.50
2022-11-19T15:11:54.771Z,3.80
2022-11-19T15:12:53.246Z,3.20
2022-11-19T15:13:53.428Z,3.10
2022-11-19T15:14:53.571Z,3.20
2022-11-19T15:15:53.693Z,3.30
2022-11-19T15:16:55.408Z,3.20
2022-11-19T15:17:57.740Z,3.80
2022-11-19T15:18:55.027Z,3.60
2022-11-19T15:19:54.188Z,4.00
2022-11-19T15:20:54.337Z,3.30
2022-11-19T15:21:54.418Z,4.10
2022-11-19T15:22:56.249Z,3.60
2022-11-19T15:23:54.659Z,3.80
2022-11-19T15:24:55.768Z,4.40
2022-11-19T15:25:54.929Z,3.80
2022-11-19T15:26:57.583Z,4.20
2022-11-19T15:27:55.515Z,4.00
2022-11-19T15:28:56.536Z,4.60
2022-11-19T15:29:57.589Z,3.80
2022-11-19T15:30:58.045Z,4.20
2022-11-19T15:31:56.104Z,5.20
2022-11-19T15:32:56.681Z,4.60
2022-11-19T15:33:56.394Z,4.20
2022-11-19T15:35:11.018Z,5.80
2022-11-19T15:35:58.988Z,4.30
2022-11-19T15:36:56.857Z,5.50
2022-11-19T15:37:59.890Z,5.40
2022-11-19T15:38:57.978Z,4.60
2022-11-19T15:39:57.449Z,4.90
2022-11-19T15:40:58.993Z,4.90
2022-11-19T15:41:57.842Z,4.40
2022-11-19T15:42:59.498Z,4.40
2022-11-19T15:43:59.496Z,5.30
2022-11-19T15:45:01.125Z,5.00
2022-11-19T15:45:58.107Z,4.00
2022-11-19T15:46:59.006Z,4.50
2022-11-19T15:48:01.017Z,5.00
2022-11-19T15:48:58.488Z,4.90
2022-11-19T15:49:59.887Z,4.10
2022-11-19T15:50:58.856Z,4.30
2022-11-19T15:51:58.696Z,4.80
2022-11-19T15:53:00.774Z,5.30
2022-11-19T15:53:59.036Z,4.50
2022-11-19T15:54:59.296Z,4.80
2022-11-19T15:56:01.583Z,5.40
2022-11-19T15:57:00.044Z,4.60
2022-11-19T15:58:01.315Z,4.60
2022-11-19T15:58:59.836Z,4.60
2022-11-19T16:00:00.840Z,5.40
2022-11-19T16:01:00.744Z,4.70
2022-11-19T16:12:22.914Z,5.40
2022-11-19T16:13:24.276Z,5.30
2022-11-19T16:14:23.042Z,5.70
2022-11-19T16:15:24.957Z,5.40
2022-11-19T16:16:23.001Z,5.10
2022-11-19T16:17:23.211Z,5.80
2022-11-19T16:18:25.099Z,5.40
2022-11-19T16:19:23.753Z,5.40
2022-11-19T16:20:26.308Z,6.30
2022-11-19T16:21:25.481Z,4.60
2022-11-19T16:22:26.121Z,6.70
2022-11-19T16:23:26.723Z,4.60
2022-11-19T16:24:31.434Z,5.40
2022-11-19T16:25:28.370Z,4.90
2022-11-19T16:26:24.823Z,6.60
2022-11-19T16:27:25.109Z,5.90
2022-11-19T16:28:25.320Z,5.90
2022-11-19T16:29:26.578Z,5.40
2022-11-19T16:30:27.749Z,5.20
2022-11-19T16:31:26.463Z,5.60
2022-11-19T16:32:25.711Z,6.20
2022-11-19T16:33:25.310Z,5.20
2022-11-19T16:34:25.377Z,5.90
2022-11-19T16:35:27.210Z,5.50
2022-11-19T16:36:26.059Z,5.60
2022-11-19T16:37:26.238Z,5.70
2022-11-19T16:38:26.418Z,5.50
2022-11-19T16:39:27.982Z,6.10
2022-11-19T16:40:26.495Z,5.50
2022-11-19T16:41:29.672Z,6.20
2022-11-19T16:42:27.116Z,6.10
2022-11-19T16:43:27.299Z,6.80
2022-11-19T16:44:28.208Z,6.80
2022-11-19T16:45:27.608Z,6.40
2022-11-19T16:46:28.426Z,5.90
2022-11-19T16:47:26.911Z,6.70
2022-11-19T16:48:28.657Z,6.20
2022-11-19T16:49:28.886Z,5.70
2022-11-19T16:50:28.280Z,6.30
2022-11-19T16:51:27.413Z,6.10
2022-11-19T16:52:28.597Z,6.40
2022-11-19T16:53:27.688Z,5.70
2022-11-19T16:54:28.911Z,5.20
2022-11-19T16:55:27.974Z,5.80
2022-11-19T16:56:29.765Z,6.70
2022-11-19T16:57:28.268Z,5.70
2022-11-19T16:58:28.389Z,5.90
2022-11-19T16:59:28.535Z,5.90
2022-11-19T17:00:31.026Z,5.70
2022-11-19T17:01:29.959Z,5.70
2022-11-19T17:02:31.551Z,5.80
2022-11-19T17:03:31.753Z,6.70
2022-11-19T17:04:29.265Z,6.40
2022-11-19T17:05:31.948Z,6.60
2022-11-19T17:06:29.533Z,5.90
2022-11-19T17:07:32.266Z,6.20
2022-11-19T17:08:32.526Z,5.90
2022-11-19T17:09:31.315Z,6.40
2022-11-19T17:10:32.809Z,6.20
2022-11-19T17:11:33.462Z,6.80
2022-11-19T17:12:30.651Z,5.90
2022-11-19T17:13:31.329Z,5.80
2022-11-19T17:14:31.129Z,6.60
2022-11-19T17:15:33.982Z,7.10
2022-11-19T17:16:31.894Z,6.60
2022-11-19T17:17:36.901Z,6.40
2022-11-19T17:18:35.421Z,5.80
2022-11-19T17:19:32.325Z,6.30
2022-11-19T17:20:35.040Z,7.00
2022-11-19T17:21:34.123Z,6.20
2022-11-19T17:22:34.872Z,6.90
2022-11-19T17:23:32.849Z,6.20
2022-11-19T17:24:34.992Z,6.70
2022-11-19T17:25:35.471Z,6.20
2022-11-19T17:26:33.426Z,6.10
2022-11-19T17:27:35.337Z,6.50
2022-11-19T17:28:33.549Z,6.70
2022-11-19T17:29:35.054Z,6.20
2022-11-19T17:30:36.200Z,7.20
2022-11-19T17:31:35.598Z,6.20
2022-11-19T17:32:33.707Z,6.30
2022-11-19T17:33:36.758Z,5.70
2022-11-19T17:34:33.909Z,6.60
2022-11-19T17:35:36.933Z,6.20
2022-11-19T17:36:33.921Z,6.50
2022-11-19T17:37:35.288Z,7.00
2022-11-19T17:38:34.067Z,6.90
2022-11-19T17:39:35.858Z,5.60
2022-11-19T17:40:34.328Z,6.10
2022-11-19T17:41:34.427Z,5.90